Time;durP1;ratioP1;P1;durP2;ratioP2;P2;SDS_P1;SDS_P2;PMS_P1;PMS_P2;Temp;Humidity;BMP_temperature;BMP_pressure;BME280_temperature;BME280_humidity;BME280_pressure;Samples;Min_cycle;Max_cycle;Signal;HPM_P1;HPM_P2
2021/06/09 00:03:04;;;;;;;10.35;3.55;;;;;;;;;;7021993;28;20082;-86
2021/06/09 00:06:25;;;;;;;8.52;3.28;;;;;;;;;;7007889;28;20048;-86
2021/06/09 00:09:46;;;;;;;13.02;3.55;;;;;;;;;;7025689;28;20051;-85
2021/06/09 00:13:07;;;;;;;3.78;3.10;;;;;;;;;;7026363;28;20036;-85
2021/06/09 00:16:27;;;;;;;4.05;3.15;;;;;;;;;;6988134;28;20063;-86
2021/06/09 00:19:47;;;;;;;5.75;3.47;;;;;;;;;;7013698;28;20488;-85
2021/06/09 00:23:11;;;;;;;5.00;3.22;;;;;;;;;;7007877;28;20056;-87
2021/06/09 00:26:31;;;;;;;4.97;3.53;;;;;;;;;;7011502;28;20068;-86
2021/06/09 00:29:52;;;;;;;6.05;3.13;;;;;;;;;;7018795;28;20044;-85
2021/06/09 00:33:13;;;;;;;6.07;3.15;;;;;;;;;;6989137;28;20040;-85
2021/06/09 00:36:34;;;;;;;5.53;3.08;;;;;;;;;;7025057;28;20052;-87
2021/06/09 00:39:54;;;;;;;5.18;3.17;;;;;;;;;;7020278;28;20097;-85
2021/06/09 00:43:19;;;;;;;5.60;3.25;;;;;;;;;;7020726;28;20110;-86
2021/06/09 00:46:42;;;;;;;7.43;3.08;;;;;;;;;;6997701;28;20758;-86
2021/06/09 00:50:03;;;;;;;4.43;2.90;;;;;;;;;;7018316;28;20048;-84
2021/06/09 00:53:27;;;;;;;5.95;3.30;;;;;;;;;;7024894;28;20487;-84
2021/06/09 00:56:48;;;;;;;8.07;3.20;;;;;;;;;;7025215;28;20113;-85
2021/06/09 01:00:10;;;;;;;3.20;2.80;;;;;;;;;;7007340;28;20043;-85
2021/06/09 01:03:32;;;;;;;4.97;3.30;;;;;;;;;;7004202;28;20062;-83
2021/06/09 01:06:52;;;;;;;6.50;3.03;;;;;;;;;;7004637;28;20071;-84
2021/06/09 01:10:13;;;;;;;7.05;3.30;;;;;;;;;;7011395;28;20083;-85
2021/06/09 01:13:33;;;;;;;5.95;3.28;;;;;;;;;;7020766;28;20040;-85
2021/06/09 01:16:54;;;;;;;5.20;2.78;;;;;;;;;;7014829;28;20480;-85
2021/06/09 01:20:14;;;;;;;7.43;3.00;;;;;;;;;;7011079;28;20049;-84
2021/06/09 01:23:36;;;;;;;4.63;3.25;;;;;;;;;;7009780;28;20044;-84
2021/06/09 01:26:57;;;;;;;7.40;3.33;;;;;;;;;;6981055;22;20060;-83
2021/06/09 01:30:18;;;;;;;5.22;3.03;;;;;;;;;;6956086;28;20411;-83
2021/06/09 01:33:39;;;;;;;6.40;3.30;;;;;;;;;;6968295;28;20033;-83
2021/06/09 01:36:59;;;;;;;5.85;2.70;;;;;;;;;;6954920;28;20056;-83
2021/06/09 01:40:22;;;;;;;3.83;2.90;;;;;;;;;;6962480;28;20076;-82
2021/06/09 01:43:42;;;;;;;3.42;2.70;;;;;;;;;;6951051;28;20041;-82
2021/06/09 01:47:03;;;;;;;5.18;2.97;;;;;;;;;;6944176;28;20079;-83
2021/06/09 01:50:24;;;;;;;5.47;2.97;;;;;;;;;;6960790;28;20069;-83
2021/06/09 01:53:46;;;;;;;3.35;2.70;;;;;;;;;;6982520;28;20068;-84
2021/06/09 01:57:07;;;;;;;7.40;2.50;;;;;;;;;;6949051;28;20080;-84
2021/06/09 02:00:34;;;;;;;3.00;2.63;;;;;;;;;;6977390;28;20056;-84
2021/06/09 02:03:54;;;;;;;6.20;2.65;;;;;;;;;;6985999;28;20047;-83
2021/06/09 02:07:15;;;;;;;8.82;2.78;;;;;;;;;;6950423;28;20036;-83
2021/06/09 02:10:37;;;;;;;5.10;2.63;;;;;;;;;;6961073;28;20480;-83
2021/06/09 02:13:58;;;;;;;4.78;2.65;;;;;;;;;;6985295;28;20048;-83
2021/06/09 02:17:19;;;;;;;4.28;2.83;;;;;;;;;;6967937;28;20049;-83
2021/06/09 02:20:41;;;;;;;2.80;2.50;;;;;;;;;;6934979;28;20179;-84
2021/06/09 02:24:02;;;;;;;4.47;2.45;;;;;;;;;;6970402;28;20057;-84
2021/06/09 02:27:23;;;;;;;5.40;2.70;;;;;;;;;;6951483;28;20087;-86
2021/06/09 02:30:45;;;;;;;5.45;3.20;;;;;;;;;;6947335;28;20131;-84
2021/06/09 02:34:15;;;;;;;3.80;2.60;;;;;;;;;;6987278;28;20049;-85
2021/06/09 02:37:36;;;;;;;4.95;3.15;;;;;;;;;;6971785;28;20499;-84
2021/06/09 02:40:58;;;;;;;4.28;2.63;;;;;;;;;;6981866;28;20079;-84
2021/06/09 02:44:18;;;;;;;3.33;2.60;;;;;;;;;;6979220;28;20084;-84
2021/06/09 02:47:41;;;;;;;4.10;2.25;;;;;;;;;;6967481;28;20127;-83
2021/06/09 02:51:02;;;;;;;3.28;2.72;;;;;;;;;;6946066;28;20067;-85
2021/06/09 02:54:32;;;;;;;4.82;2.47;;;;;;;;;;6951914;28;20044;-81
2021/06/09 02:58:09;;;;;;;6.90;2.65;;;;;;;;;;6956624;28;20049;-81
2021/06/09 03:01:46;;;;;;;3.53;2.47;;;;;;;;;;6978515;28;20047;-82
2021/06/09 03:05:42;;;;;;;7.22;2.60;;;;;;;;;;6940348;28;20049;-83
2021/06/09 03:09:14;;;;;;;3.22;2.72;;;;;;;;;;6963246;28;20041;-82
2021/06/09 03:12:45;;;;;;;2.92;2.53;;;;;;;;;;6976794;28;20048;-82
2021/06/09 03:16:08;;;;;;;2.65;2.03;;;;;;;;;;6967333;28;20476;-83
2021/06/09 03:19:40;;;;;;;5.78;2.70;;;;;;;;;;6952147;28;20080;-81
2021/06/09 03:23:07;;;;;;;2.97;2.30;;;;;;;;;;6965302;28;20078;-81
2021/06/09 03:26:27;;;;;;;4.10;2.35;;;;;;;;;;6957876;28;20041;-80
2021/06/09 03:29:51;;;;;;;2.88;2.20;;;;;;;;;;6970813;28;20095;-81
2021/06/09 03:33:12;;;;;;;3.28;2.70;;;;;;;;;;6988592;28;20045;-82
2021/06/09 03:36:37;;;;;;;3.80;2.53;;;;;;;;;;6970844;28;20128;-83
2021/06/09 03:39:58;;;;;;;2.78;2.50;;;;;;;;;;6973376;28;20076;-82
2021/06/09 03:43:19;;;;;;;2.80;2.30;;;;;;;;;;6975352;28;20056;-82
2021/06/09 03:46:41;;;;;;;3.03;2.50;;;;;;;;;;6966450;28;20052;-82
2021/06/09 03:50:03;;;;;;;2.83;2.22;;;;;;;;;;6959007;28;20072;-83
2021/06/09 03:53:23;;;;;;;2.45;2.25;;;;;;;;;;6957323;28;20084;-82
2021/06/09 03:56:45;;;;;;;3.00;2.13;;;;;;;;;;6953181;28;20076;-83
2021/06/09 04:00:07;;;;;;;2.33;2.13;;;;;;;;;;6948579;28;20475;-85
2021/06/09 04:03:28;;;;;;;5.93;2.10;;;;;;;;;;6951988;28;20055;-83
2021/06/09 04:06:50;;;;;;;4.13;2.65;;;;;;;;;;6940340;28;20048;-82
2021/06/09 04:10:12;;;;;;;4.35;2.50;;;;;;;;;;6948583;28;20049;-84
2021/06/09 04:13:33;;;;;;;3.10;2.40;;;;;;;;;;6926715;28;20516;-83
2021/06/09 04:16:56;;;;;;;4.90;2.50;;;;;;;;;;6982188;28;20491;-84
2021/06/09 04:20:25;;;;;;;4.88;2.20;;;;;;;;;;6953958;28;20498;-82
2021/06/09 04:23:46;;;;;;;4.65;2.40;;;;;;;;;;6926302;28;20056;-82
2021/06/09 04:27:09;;;;;;;4.13;2.30;;;;;;;;;;6978311;28;20040;-82
2021/06/09 04:30:30;;;;;;;3.10;2.40;;;;;;;;;;6957048;28;20080;-83
2021/06/09 04:33:55;;;;;;;4.45;2.13;;;;;;;;;;6964231;28;20045;-83
2021/06/09 04:37:21;;;;;;;3.63;2.55;;;;;;;;;;6974761;28;20510;-85
2021/06/09 04:40:43;;;;;;;33.28;2.70;;;;;;;;;;6966568;28;20045;-87
2021/06/09 04:44:04;;;;;;;8.80;2.55;;;;;;;;;;6975639;28;20097;-88
2021/06/09 04:47:29;;;;;;;7.25;2.58;;;;;;;;;;6964971;28;20088;-88
2021/06/09 04:50:50;;;;;;;2.50;2.00;;;;;;;;;;6969876;28;20500;-86
2021/06/09 04:54:10;;;;;;;7.47;2.17;;;;;;;;;;6939105;28;20057;-86
2021/06/09 04:57:31;;;;;;;4.43;2.20;;;;;;;;;;6940323;28;20083;-87
2021/06/09 05:00:52;;;;;;;5.50;2.33;;;;;;;;;;6969127;28;20048;-85
2021/06/09 05:04:12;;;;;;;2.83;1.90;;;;;;;;;;6969225;28;20536;-84
2021/06/09 05:07:33;;;;;;;3.17;1.95;;;;;;;;;;6969724;28;20033;-88
2021/06/09 05:10:53;;;;;;;2.75;1.90;;;;;;;;;;6950968;28;20561;-88
2021/06/09 05:14:16;;;;;;;2.92;2.28;;;;;;;;;;6951265;28;20045;-87
2021/06/09 05:17:48;;;;;;;4.05;1.95;;;;;;;;;;6950942;28;20049;-86
2021/06/09 05:21:09;;;;;;;8.55;1.90;;;;;;;;;;6928990;28;20052;-85
2021/06/09 05:24:31;;;;;;;5.72;2.00;;;;;;;;;;6959013;28;20128;-84
2021/06/09 05:27:53;;;;;;;4.30;1.95;;;;;;;;;;6949750;28;20045;-87
2021/06/09 05:31:14;;;;;;;11.55;2.08;;;;;;;;;;6950434;28;20084;-88
2021/06/09 05:34:39;;;;;;;3.67;2.20;;;;;;;;;;6955342;28;20442;-89
2021/06/09 05:38:00;;;;;;;5.22;3.10;;;;;;;;;;6946474;28;20053;-88
2021/06/09 05:41:24;;;;;;;5.68;3.38;;;;;;;;;;6949053;28;20103;-90
2021/06/09 05:44:47;;;;;;;5.40;3.42;;;;;;;;;;6960068;28;20624;-90
2021/06/09 05:48:08;;;;;;;8.65;7.65;;;;;;;;;;6951348;28;20053;-90
2021/06/09 05:51:28;;;;;;;8.52;6.95;;;;;;;;;;6968255;28;20041;-91
2021/06/09 05:54:48;;;;;;;7.30;6.80;;;;;;;;;;6940995;28;20473;-90
2021/06/09 05:58:09;;;;;;;9.93;2.35;;;;;;;;;;6965710;28;20120;-89
2021/06/09 06:01:29;;;;;;;2.70;2.30;;;;;;;;;;6949701;28;20060;-88
2021/06/09 06:04:50;;;;;;;4.53;2.58;;;;;;;;;;6971703;28;20052;-91
2021/06/09 06:08:11;;;;;;;9.90;2.40;;;;;;;;;;6928971;28;20099;-86
2021/06/09 06:11:32;;;;;;;4.20;2.67;;;;;;;;;;6968281;28;20049;-86
2021/06/09 06:14:53;;;;;;;3.55;2.38;;;;;;;;;;6964732;28;20087;-92
2021/06/09 06:18:14;;;;;;;4.20;2.13;;;;;;;;;;6956125;28;20045;-90
2021/06/09 06:21:37;;;;;;;10.63;2.50;;;;;;;;;;6953747;28;20041;-90
2021/06/09 06:24:58;;;;;;;4.00;1.83;;;;;;;;;;6971131;28;20048;-91
2021/06/09 06:28:18;;;;;;;3.10;2.00;;;;;;;;;;6956820;28;20113;-91
2021/06/09 06:31:39;;;;;;;2.00;1.90;;;;;;;;;;6971694;28;20395;-90
2021/06/09 06:35:00;;;;;;;4.93;2.17;;;;;;;;;;6947186;28;20077;-90
2021/06/09 06:38:20;;;;;;;6.40;2.17;;;;;;;;;;6952849;28;20049;-88
2021/06/09 06:41:41;;;;;;;3.10;2.38;;;;;;;;;;6962207;28;20567;-89
2021/06/09 06:45:04;;;;;;;2.30;2.08;;;;;;;;;;6938517;28;20484;-89
2021/06/09 06:48:24;;;;;;;3.88;2.38;;;;;;;;;;6958627;28;20142;-86
2021/06/09 06:51:51;;;;;;;8.65;2.50;;;;;;;;;;6949454;28;20056;-84
2021/06/09 06:55:12;;;;;;;3.30;2.10;;;;;;;;;;6943950;28;20119;-87
2021/06/09 06:58:32;;;;;;;7.20;2.38;;;;;;;;;;6970614;28;20049;-88
2021/06/09 07:01:54;;;;;;;8.70;2.20;;;;;;;;;;6963090;28;20056;-86
2021/06/09 07:05:15;;;;;;;4.35;2.30;;;;;;;;;;6967844;28;20049;-86
2021/06/09 07:08:39;;;;;;;21.77;2.38;;;;;;;;;;6945268;28;20191;-86
2021/06/09 07:12:00;;;;;;;19.42;2.53;;;;;;;;;;6939491;28;20052;-84
2021/06/09 07:15:21;;;;;;;8.32;2.50;;;;;;;;;;6956898;28;20045;-86
2021/06/09 07:18:46;;;;;;;15.30;2.72;;;;;;;;;;6950935;28;20128;-85
2021/06/09 07:22:06;;;;;;;14.35;2.35;;;;;;;;;;6925872;28;20056;-83
2021/06/09 07:25:30;;;;;;;4.53;2.33;;;;;;;;;;6941708;28;20085;-82
2021/06/09 07:28:52;;;;;;;17.63;2.35;;;;;;;;;;6959775;28;20052;-82
2021/06/09 07:32:12;;;;;;;15.68;2.97;;;;;;;;;;6969130;28;20041;-81
2021/06/09 07:35:34;;;;;;;7.55;2.53;;;;;;;;;;6940574;28;20045;-84
2021/06/09 07:39:02;;;;;;;8.52;2.20;;;;;;;;;;6942736;28;20053;-82
2021/06/09 07:42:26;;;;;;;3.75;1.88;;;;;;;;;;6943920;28;20053;-81
2021/06/09 07:45:48;;;;;;;6.25;2.20;;;;;;;;;;6950062;28;20051;-81
2021/06/09 07:49:10;;;;;;;3.85;2.33;;;;;;;;;;6961762;28;20048;-82
2021/06/09 07:52:31;;;;;;;2.35;2.13;;;;;;;;;;6943579;28;20148;-82
2021/06/09 07:55:52;;;;;;;8.85;2.30;;;;;;;;;;6939816;28;20136;-83
2021/06/09 07:59:13;;;;;;;12.20;2.30;;;;;;;;;;6948071;28;20056;-85
2021/06/09 08:02:35;;;;;;;5.88;1.90;;;;;;;;;;6968795;28;20063;-87
2021/06/09 08:06:01;;;;;;;3.40;1.98;;;;;;;;;;6971563;28;20076;-86
2021/06/09 08:09:21;;;;;;;6.20;1.92;;;;;;;;;;6960309;28;20107;-85
2021/06/09 08:12:42;;;;;;;3.42;2.30;;;;;;;;;;6973023;28;20443;-88
2021/06/09 08:16:10;;;;;;;4.93;2.22;;;;;;;;;;6965194;28;20488;-86
2021/06/09 08:19:31;;;;;;;4.17;2.10;;;;;;;;;;6955369;28;20044;-83
2021/06/09 08:22:52;;;;;;;5.22;2.55;;;;;;;;;;6964813;28;20095;-86
2021/06/09 08:26:15;;;;;;;8.65;2.30;;;;;;;;;;6954560;28;20076;-85
2021/06/09 08:29:37;;;;;;;5.65;2.35;;;;;;;;;;6957017;28;20040;-85
2021/06/09 08:32:57;;;;;;;5.68;2.42;;;;;;;;;;6965580;28;20057;-85
2021/06/09 08:36:20;;;;;;;6.95;2.65;;;;;;;;;;6970102;28;20148;-82
2021/06/09 08:39:40;;;;;;;5.32;2.55;;;;;;;;;;6956989;28;20076;-87
2021/06/09 08:43:01;;;;;;;3.67;2.80;;;;;;;;;;6954874;28;20053;-85
2021/06/09 08:46:22;;;;;;;7.05;2.28;;;;;;;;;;6940563;28;20459;-84
2021/06/09 08:49:43;;;;;;;4.53;2.10;;;;;;;;;;6972213;28;20048;-85
2021/06/09 08:53:06;;;;;;;3.53;2.10;;;;;;;;;;6954520;28;20515;-86
2021/06/09 08:56:27;;;;;;;3.97;2.33;;;;;;;;;;6951331;28;20091;-84
2021/06/09 08:59:47;;;;;;;3.30;2.38;;;;;;;;;;6950956;28;20045;-85
2021/06/09 09:03:08;;;;;;;2.28;2.13;;;;;;;;;;6945065;28;20499;-88
2021/06/09 09:06:28;;;;;;;4.03;2.53;;;;;;;;;;6940971;28;20095;-89
2021/06/09 09:09:49;;;;;;;3.28;2.20;;;;;;;;;;6958537;28;20047;-89
2021/06/09 09:13:09;;;;;;;2.85;2.10;;;;;;;;;;6940760;28;20045;-87
2021/06/09 09:16:30;;;;;;;2.67;2.15;;;;;;;;;;6940003;28;20045;-86
2021/06/09 09:19:51;;;;;;;3.45;2.55;;;;;;;;;;6956903;28;20124;-87
2021/06/09 09:23:21;;;;;;;2.85;2.55;;;;;;;;;;6962259;28;20046;-87
2021/06/09 09:26:50;;;;;;;5.28;2.55;;;;;;;;;;6960127;28;20544;-87
2021/06/09 09:30:15;;;;;;;4.50;2.53;;;;;;;;;;6967508;28;20372;-85
2021/06/09 09:33:36;;;;;;;2.80;2.35;;;;;;;;;;6967272;28;20037;-87
2021/06/09 09:37:17;;;;;;;4.30;2.50;;;;;;;;;;6945215;28;20143;-85
2021/06/09 09:40:38;;;;;;;4.85;2.40;;;;;;;;;;6927791;28;20068;-84
2021/06/09 09:43:59;;;;;;;6.10;2.50;;;;;;;;;;6949723;28;20049;-86
2021/06/09 09:47:23;;;;;;;4.25;2.38;;;;;;;;;;6966702;28;20049;-84
2021/06/09 09:50:50;;;;;;;4.32;2.40;;;;;;;;;;6951080;28;20415;-85
2021/06/09 09:54:13;;;;;;;4.07;2.10;;;;;;;;;;6949214;28;20037;-84
2021/06/09 09:57:36;;;;;;;2.45;2.25;;;;;;;;;;6968582;28;20080;-84
2021/06/09 10:01:38;;;;;;;3.33;2.50;;;;;;;;;;6959682;28;20102;-84
2021/06/09 10:05:13;;;;;;;6.20;2.40;;;;;;;;;;6856546;28;20554;-84
2021/06/09 10:08:33;;;;;;;2.97;1.98;;;;;;;;;;6857532;28;20086;-85
2021/06/09 10:11:58;;;;;;;3.28;2.17;;;;;;;;;;6856343;28;20051;-85
2021/06/09 10:15:46;;;;;;;3.50;2.40;;;;;;;;;;6856993;28;20450;-85
2021/06/09 10:19:11;;;;;;;3.10;2.30;;;;;;;;;;6856315;28;20550;-84
2021/06/09 10:22:36;;;;;;;2.70;2.30;;;;;;;;;;6859146;28;20101;-84
2021/06/09 10:26:10;;;;;;;2.97;2.17;;;;;;;;;;6872408;28;20063;-84
2021/06/09 10:29:31;;;;;;;2.83;2.15;;;;;;;;;;6839820;28;20133;-83
2021/06/09 10:32:56;;;;;;;2.20;2.00;;;;;;;;;;6868642;28;20050;-84
2021/06/09 10:36:17;;;;;;;2.65;2.40;;;;;;;;;;6938309;28;20053;-84
2021/06/09 10:39:40;;;;;;;4.85;2.30;;;;;;;;;;6974228;28;20474;-84
2021/06/09 10:43:03;;;;;;;3.38;2.45;;;;;;;;;;6953561;28;20128;-84
2021/06/09 10:46:26;;;;;;;6.88;2.33;;;;;;;;;;6953476;28;20060;-83
2021/06/09 10:49:46;;;;;;;4.22;2.42;;;;;;;;;;6973303;28;20412;-84
2021/06/09 10:53:08;;;;;;;5.97;2.63;;;;;;;;;;6971670;28;20562;-83
2021/06/09 10:56:28;;;;;;;2.35;2.10;;;;;;;;;;6984231;28;20075;-83
2021/06/09 10:59:49;;;;;;;3.63;2.42;;;;;;;;;;6941264;28;20046;-83
2021/06/09 11:03:09;;;;;;;5.88;2.50;;;;;;;;;;6997325;28;20399;-83
2021/06/09 11:06:56;;;;;;;3.42;2.40;;;;;;;;;;6956659;28;20059;-83
2021/06/09 11:10:43;;;;;;;6.57;3.67;;;;;;;;;;6962715;28;20052;-87
2021/06/09 11:14:24;;;;;;;9.45;2.60;;;;;;;;;;6981340;28;20049;-87
2021/06/09 11:17:53;;;;;;;7.82;3.10;;;;;;;;;;6979404;28;20048;-87
2021/06/09 11:25:26;;;;;;;12.02;3.45;;;;;;;;;;6983635;28;19916;-87
2021/06/09 11:28:46;;;;;;;12.35;4.20;;;;;;;;;;6975536;28;20049;-87
2021/06/09 11:32:20;;;;;;;31.48;5.40;;;;;;;;;;6969876;28;20496;-87
2021/06/09 11:35:49;;;;;;;28.15;5.00;;;;;;;;;;6969580;28;20140;-87
2021/06/09 11:39:18;;;;;;;;;;;;;;;;;;6949904;28;20053;-87
2021/06/09 11:42:39;;;;;;;10.02;3.90;;;;;;;;;;6967795;28;19923;-87
2021/06/09 11:46:10;;;;;;;16.17;4.18;;;;;;;;;;6951249;28;20131;-87
2021/06/09 11:49:31;;;;;;;49.92;5.75;;;;;;;;;;6982647;28;20062;-88
2021/06/09 11:53:20;;;;;;;31.83;6.60;;;;;;;;;;6965247;28;20384;-88
2021/06/09 11:56:46;;;;;;;34.00;5.25;;;;;;;;;;6966703;28;20057;-85
2021/06/09 12:00:08;;;;;;;29.00;4.93;;;;;;;;;;6968100;28;20149;-85
2021/06/09 12:03:29;;;;;;;22.10;4.80;;;;;;;;;;6977456;28;20056;-85
2021/06/09 12:06:57;;;;;;;30.85;5.40;;;;;;;;;;6983941;28;20103;-85
2021/06/09 12:10:18;;;;;;;24.23;4.97;;;;;;;;;;6956690;28;20399;-85
2021/06/09 12:13:38;;;;;;;21.00;4.50;;;;;;;;;;6950522;28;20542;-85
2021/06/09 12:17:31;;;;;;;19.25;4.15;;;;;;;;;;6966050;28;20048;-85
2021/06/09 12:21:04;;;;;;;12.23;4.45;;;;;;;;;;6935411;28;20132;-84
2021/06/09 12:24:25;;;;;;;16.35;4.22;;;;;;;;;;6958982;28;20493;-84
2021/06/09 12:28:00;;;;;;;14.98;4.13;;;;;;;;;;6960601;28;20053;-86
2021/06/09 12:31:20;;;;;;;15.18;4.28;;;;;;;;;;6964683;28;20055;-83
2021/06/09 12:34:41;;;;;;;10.32;3.78;;;;;;;;;;6956112;28;20041;-84
2021/06/09 12:38:04;;;;;;;12.80;4.15;;;;;;;;;;6957495;28;20069;-84
2021/06/09 12:41:29;;;;;;;20.88;4.13;;;;;;;;;;6938515;28;20508;-84
2021/06/09 12:44:50;;;;;;;9.63;4.07;;;;;;;;;;6962146;28;20049;-82
2021/06/09 12:48:17;;;;;;;11.80;3.75;;;;;;;;;;6939529;28;20137;-83
2021/06/09 12:51:38;;;;;;;11.05;3.80;;;;;;;;;;6960713;28;20045;-83
2021/06/09 12:54:59;;;;;;;10.82;3.85;;;;;;;;;;6967657;28;20083;-83
2021/06/09 12:58:30;;;;;;;8.35;3.78;;;;;;;;;;6957336;28;20143;-82
2021/06/09 13:01:58;;;;;;;12.50;3.83;;;;;;;;;;6959453;28;20099;-83
2021/06/09 13:05:19;;;;;;;7.25;3.60;;;;;;;;;;6962632;28;20444;-84
2021/06/09 13:08:42;;;;;;;9.50;4.00;;;;;;;;;;6973519;28;21441;-83
2021/06/09 13:12:04;;;;;;;11.93;3.58;;;;;;;;;;6954779;28;20053;-84
2021/06/09 13:15:27;;;;;;;10.85;4.15;;;;;;;;;;6967279;28;20052;-88
2021/06/09 13:19:05;;;;;;;12.90;4.30;;;;;;;;;;6965258;28;20440;-84
2021/06/09 13:22:26;;;;;;;21.48;3.72;;;;;;;;;;6952046;28;20057;-85
2021/06/09 13:25:46;;;;;;;10.88;4.13;;;;;;;;;;6983221;23;20061;-83
2021/06/09 13:29:27;;;;;;;6.22;3.53;;;;;;;;;;6941511;28;20128;-82
2021/06/09 13:32:51;;;;;;;9.52;4.07;;;;;;;;;;6926497;28;20420;-83
2021/06/09 13:36:17;;;;;;;9.00;4.10;;;;;;;;;;6933642;28;20107;-87
2021/06/09 13:39:40;;;;;;;4.60;3.33;;;;;;;;;;6934024;28;20099;-88
2021/06/09 13:43:10;;;;;;;5.00;3.53;;;;;;;;;;6941041;28;20052;-88
2021/06/09 13:46:45;;;;;;;16.30;3.80;;;;;;;;;;6938009;28;20049;-87
2021/06/09 13:50:11;;;;;;;6.40;3.45;;;;;;;;;;6935754;28;20042;-87
2021/06/09 13:53:49;;;;;;;7.63;3.63;;;;;;;;;;6932995;28;20126;-87
2021/06/09 13:57:25;;;;;;;4.90;3.30;;;;;;;;;;6934516;28;20061;-86
2021/06/09 14:00:46;;;;;;;11.70;3.72;;;;;;;;;;6924560;28;20492;-84
2021/06/09 14:04:06;;;;;;;8.23;3.42;;;;;;;;;;6930161;28;20065;-89
2021/06/09 14:07:27;;;;;;;6.93;3.45;;;;;;;;;;6923606;28;20046;-84
2021/06/09 14:10:50;;;;;;;11.30;3.50;;;;;;;;;;6925806;28;20046;-82
2021/06/09 14:14:24;;;;;;;5.82;3.58;;;;;;;;;;6921353;28;20054;-83
2021/06/09 14:17:46;;;;;;;9.07;4.22;;;;;;;;;;6919465;28;20136;-83
2021/06/09 14:21:09;;;;;;;5.47;3.67;;;;;;;;;;6938887;28;20191;-83
2021/06/09 14:24:37;;;;;;;6.65;3.88;;;;;;;;;;6926339;28;20078;-85
2021/06/09 14:28:06;;;;;;;13.18;3.58;;;;;;;;;;6916593;28;20049;-85
2021/06/09 14:31:27;;;;;;;14.77;3.97;;;;;;;;;;6931815;28;20084;-85
2021/06/09 14:34:47;;;;;;;4.85;3.75;;;;;;;;;;6943647;28;20467;-83
2021/06/09 14:38:18;;;;;;;5.32;3.42;;;;;;;;;;6939516;28;20180;-83
2021/06/09 14:41:45;;;;;;;8.32;3.95;;;;;;;;;;6923324;28;20298;-82
2021/06/09 14:45:25;;;;;;;5.80;3.72;;;;;;;;;;6914484;28;20061;-82
2021/06/09 14:48:50;;;;;;;4.88;4.38;;;;;;;;;;6914653;28;20046;-83
2021/06/09 14:52:22;;;;;;;5.90;3.80;;;;;;;;;;6936417;28;20447;-82
2021/06/09 14:55:43;;;;;;;5.15;4.20;;;;;;;;;;6943193;28;20053;-82
2021/06/09 14:59:03;;;;;;;4.72;3.97;;;;;;;;;;6943472;28;20042;-82
2021/06/09 15:02:25;;;;;;;6.43;3.83;;;;;;;;;;6917409;28;20056;-83
2021/06/09 15:05:46;;;;;;;4.28;3.88;;;;;;;;;;6915154;28;20133;-82
2021/06/09 15:09:06;;;;;;;5.00;3.92;;;;;;;;;;6915632;28;20079;-82
2021/06/09 15:12:28;;;;;;;5.95;3.70;;;;;;;;;;6937906;28;20080;-82
2021/06/09 15:15:49;;;;;;;6.68;4.10;;;;;;;;;;6942995;28;20531;-82
2021/06/09 15:19:10;;;;;;;5.03;3.60;;;;;;;;;;6943276;28;20042;-84
2021/06/09 15:22:31;;;;;;;4.18;3.55;;;;;;;;;;6915726;28;20548;-83
2021/06/09 15:25:51;;;;;;;8.80;4.20;;;;;;;;;;6933804;28;20128;-83
2021/06/09 15:29:12;;;;;;;4.72;3.50;;;;;;;;;;6949929;28;20053;-83
2021/06/09 15:32:33;;;;;;;5.55;3.75;;;;;;;;;;6926413;28;20046;-83
2021/06/09 15:35:53;;;;;;;5.50;3.70;;;;;;;;;;6932561;28;20055;-87
2021/06/09 15:39:16;;;;;;;6.30;3.40;;;;;;;;;;6932069;28;20045;-89
2021/06/09 15:42:37;;;;;;;6.72;4.10;;;;;;;;;;6935569;28;20531;-89
2021/06/09 15:45:57;;;;;;;12.40;4.30;;;;;;;;;;6929920;28;20057;-85
2021/06/09 15:49:28;;;;;;;10.63;4.10;;;;;;;;;;6938043;28;20080;-84
2021/06/09 15:52:49;;;;;;;13.57;4.20;;;;;;;;;;6931968;28;20056;-85
2021/06/09 15:56:10;;;;;;;4.90;3.80;;;;;;;;;;6927683;28;20140;-86
2021/06/09 15:59:31;;;;;;;12.23;4.07;;;;;;;;;;6929901;28;20129;-85
2021/06/09 16:02:52;;;;;;;4.28;3.85;;;;;;;;;;6931051;28;20042;-85
2021/06/09 16:06:14;;;;;;;4.95;3.70;;;;;;;;;;6946518;28;20107;-86
2021/06/09 16:09:34;;;;;;;6.82;3.50;;;;;;;;;;6938900;28;20592;-85
2021/06/09 16:12:55;;;;;;;6.53;3.95;;;;;;;;;;6930349;28;20042;-84
2021/06/09 16:16:15;;;;;;;6.35;3.90;;;;;;;;;;6931688;28;20054;-85
2021/06/09 16:19:36;;;;;;;4.40;3.63;;;;;;;;;;6933366;28;20412;-84
2021/06/09 16:22:56;;;;;;;5.95;3.60;;;;;;;;;;6926742;28;20058;-84
2021/06/09 16:26:17;;;;;;;6.57;4.15;;;;;;;;;;6959287;28;20136;-85
2021/06/09 16:29:38;;;;;;;4.40;3.78;;;;;;;;;;6942114;28;20054;-83
2021/06/09 16:33:01;;;;;;;6.95;3.58;;;;;;;;;;6924562;28;20416;-85
2021/06/09 16:36:22;;;;;;;4.25;3.35;;;;;;;;;;6933581;28;20053;-84
2021/06/09 16:39:42;;;;;;;5.78;3.60;;;;;;;;;;6941936;28;20045;-85
2021/06/09 16:43:03;;;;;;;25.00;3.95;;;;;;;;;;6919002;28;20061;-84
2021/06/09 16:46:23;;;;;;;15.45;3.80;;;;;;;;;;6914077;28;20078;-88
2021/06/09 16:49:44;;;;;;;10.10;3.42;;;;;;;;;;6914622;28;20901;-86
2021/06/09 16:53:05;;;;;;;25.50;3.58;;;;;;;;;;6913561;28;20128;-86
2021/06/09 16:56:45;;;;;;;26.75;3.67;;;;;;;;;;6913984;28;20061;-87
2021/06/09 17:00:06;;;;;;;14.18;3.35;;;;;;;;;;6926028;28;20064;-86
2021/06/09 17:03:27;;;;;;;8.52;3.78;;;;;;;;;;6931907;28;20285;-86
2021/06/09 17:06:47;;;;;;;6.38;3.10;;;;;;;;;;6910382;28;20100;-87
2021/06/09 17:10:09;;;;;;;9.98;3.90;;;;;;;;;;6911413;28;20041;-88
2021/06/09 17:13:29;;;;;;;18.73;3.53;;;;;;;;;;6913010;28;20513;-86
2021/06/09 17:16:50;;;;;;;25.80;4.25;;;;;;;;;;6940453;28;20147;-86
2021/06/09 17:20:11;;;;;;;15.20;4.43;;;;;;;;;;6940264;28;20048;-83
2021/06/09 17:23:32;;;;;;;12.45;3.92;;;;;;;;;;6938859;28;20052;-85
2021/06/09 17:26:53;;;;;;;18.63;4.80;;;;;;;;;;6913203;28;20074;-84
2021/06/09 17:30:13;;;;;;;8.55;3.83;;;;;;;;;;6917335;28;20038;-86
2021/06/09 17:33:34;;;;;;;6.82;3.58;;;;;;;;;;6915598;28;20133;-86
2021/06/09 17:36:55;;;;;;;14.82;4.35;;;;;;;;;;6934661;28;20041;-83
2021/06/09 17:40:20;;;;;;;9.90;3.70;;;;;;;;;;6937590;28;20083;-83
2021/06/09 17:43:40;;;;;;;8.70;3.97;;;;;;;;;;6932274;28;20626;-83
2021/06/09 17:47:01;;;;;;;9.80;4.05;;;;;;;;;;6928077;28;20559;-82
2021/06/09 17:50:22;;;;;;;5.70;3.20;;;;;;;;;;6925062;28;20050;-82
2021/06/09 17:53:43;;;;;;;9.52;4.00;;;;;;;;;;6928371;28;20048;-82
2021/06/09 17:57:04;;;;;;;4.60;3.67;;;;;;;;;;6926475;28;20093;-82
2021/06/09 18:00:36;;;;;;;5.15;3.38;;;;;;;;;;6927567;28;20099;-82
2021/06/09 18:03:57;;;;;;;8.30;4.10;;;;;;;;;;6926355;28;20057;-82
2021/06/09 18:07:18;;;;;;;6.43;3.67;;;;;;;;;;6936555;28;20096;-82
2021/06/09 18:10:39;;;;;;;6.95;3.55;;;;;;;;;;6934044;28;20033;-82
2021/06/09 18:14:00;;;;;;;5.60;3.20;;;;;;;;;;6929523;28;20054;-82
2021/06/09 18:17:20;;;;;;;5.40;4.00;;;;;;;;;;6932345;28;20049;-82
2021/06/09 18:20:41;;;;;;;4.78;3.60;;;;;;;;;;6930717;28;20607;-81
2021/06/09 18:24:02;;;;;;;8.25;4.07;;;;;;;;;;6930756;28;20053;-82
2021/06/09 18:27:22;;;;;;;8.23;3.65;;;;;;;;;;6916869;28;20099;-82
2021/06/09 18:30:42;;;;;;;4.88;3.35;;;;;;;;;;6916805;28;20049;-82
2021/06/09 18:34:04;;;;;;;4.47;3.50;;;;;;;;;;6916259;28;20125;-82
2021/06/09 18:37:25;;;;;;;5.93;3.53;;;;;;;;;;6916316;28;20050;-81
2021/06/09 18:40:47;;;;;;;6.25;3.47;;;;;;;;;;6937754;28;20144;-82
2021/06/09 18:44:09;;;;;;;4.97;3.63;;;;;;;;;;6930332;28;20510;-81
2021/06/09 18:47:30;;;;;;;7.88;3.63;;;;;;;;;;6931960;28;20064;-82
2021/06/09 18:50:50;;;;;;;7.43;4.07;;;;;;;;;;6943830;28;20377;-82
2021/06/09 18:54:11;;;;;;;7.53;3.70;;;;;;;;;;6935347;28;20060;-82
2021/06/09 18:57:32;;;;;;;9.55;3.90;;;;;;;;;;6936721;28;20057;-82
2021/06/09 19:00:52;;;;;;;5.65;3.47;;;;;;;;;;6943429;28;20408;-82
2021/06/09 19:04:13;;;;;;;3.95;2.92;;;;;;;;;;6939197;28;20049;-82
2021/06/09 19:07:37;;;;;;;4.93;3.45;;;;;;;;;;6942440;28;20049;-82
2021/06/09 19:11:03;;;;;;;9.15;3.58;;;;;;;;;;6943261;28;20057;-82
2021/06/09 19:14:23;;;;;;;6.40;3.47;;;;;;;;;;6952808;28;20136;-82
2021/06/09 19:17:45;;;;;;;4.80;3.25;;;;;;;;;;6942778;28;20048;-82
2021/06/09 19:21:06;;;;;;;8.85;3.80;;;;;;;;;;6943093;28;20050;-82
2021/06/09 19:24:26;;;;;;;6.50;3.22;;;;;;;;;;6928292;28;20425;-82
2021/06/09 19:27:47;;;;;;;7.72;3.40;;;;;;;;;;6915446;28;20519;-82
2021/06/09 19:31:08;;;;;;;7.53;3.72;;;;;;;;;;6915497;28;20164;-82
2021/06/09 19:34:28;;;;;;;5.65;3.25;;;;;;;;;;6924352;28;20050;-81
2021/06/09 19:37:49;;;;;;;7.63;3.22;;;;;;;;;;6941356;28;20050;-81
2021/06/09 19:41:10;;;;;;;8.90;3.53;;;;;;;;;;6936090;28;20140;-82
2021/06/09 19:44:32;;;;;;;8.45;3.47;;;;;;;;;;6934814;28;20041;-82
2021/06/09 19:47:53;;;;;;;7.13;3.40;;;;;;;;;;6934616;28;20054;-82
2021/06/09 19:51:14;;;;;;;5.30;3.33;;;;;;;;;;6935663;28;20042;-82
2021/06/09 19:54:35;;;;;;;10.18;3.92;;;;;;;;;;6938717;28;20119;-82
2021/06/09 19:57:55;;;;;;;8.80;3.22;;;;;;;;;;6930176;28;20049;-82
2021/06/09 20:01:16;;;;;;;5.40;3.53;;;;;;;;;;6938317;28;20130;-81
2021/06/09 20:04:36;;;;;;;3.83;2.80;;;;;;;;;;6932369;28;20041;-82
2021/06/09 20:07:57;;;;;;;6.10;3.38;;;;;;;;;;6931167;28;20129;-82
2021/06/09 20:11:17;;;;;;;4.35;3.20;;;;;;;;;;6933463;28;20042;-82
2021/06/09 20:14:38;;;;;;;8.23;3.50;;;;;;;;;;6933576;28;20169;-82
2021/06/09 20:17:58;;;;;;;5.38;3.47;;;;;;;;;;6933979;28;20056;-82
2021/06/09 20:21:19;;;;;;;5.47;3.13;;;;;;;;;;6939491;28;20431;-82